Tiempo atmosférico en la estación meteorológica de Ballobar, Huesca (178 m.)



Fecha
DESCASC
Temp. máxima en grados centígrados (hora)
DESCASC
Temp. mínima en grados centígrados (hora)
DESCASC
Temp. media en grados centígrados
DESCASC
Racha de viento máxima en m/sg (hora)
DESCASC
Velocidad máxima media en intervalos de 10 minutos(hora)
DESCASC
Precipitaciones diarias en mm
DESCASC
Precipitaciones de 00:00 a 06:00 en mm
DESCASC
Precipitaciones de 06:00 a 12:00 en mm
DESCASC
Precipitaciones de 12:00 a 18:00 en mm
DESCASC
Precipitaciones de 18:00 a 24:00 en mm
DESCASC
28-02-2021 14.5 (16:00) 5.9 (23:50) 10.2 9.72 (16:20) 6.67 (16:20) 0 0 0 0 0
27-02-2021 14.8 (16:40) 5 (01:20) 9.9 7.5 (20:20) 4.17 (19:50) 0 0 0 0 0
26-02-2021 13.7 (15:40) 4.2 (05:50) 8.9 4.17 (17:10) 3.06 (16:10) 0 0 0 0 0
25-02-2021 17.1 (16:10) 4.9 (00:00) 11 7.22 (14:50) 3.61 (14:50) 0 0 0 0 0
24-02-2021 16.5 (16:30) 6.9 (00:00) 11.7 6.11 (16:10) 3.89 (17:00) 0 0 0 0 0
23-02-2021 16 (16:40) 7.6 (00:00) 11.8 4.17 (15:40) 2.5 (15:40) 0 0 0 0 0
22-02-2021 14.2 (03:50) 8.4 (00:00) 11.3 13.06 (03:50) 8.33 (02:10) 5 1.8 3.2 0 0
21-02-2021 16.1 (15:50) 5.9 (00:00) 11 14.17 (15:00) 8.89 (14:00) 0 0 0 0 0
20-02-2021 17 (14:20) 3.3 (00:00) 10.1 13.61 (19:00) 8.61 (14:40) 0 0 0 0 0
19-02-2021 17.9 (16:30) 4.2 (00:00) 11 10 (17:20) 6.94 (17:20) 0 0 0 0 0
18-02-2021 16.6 (16:50) 4 (00:00) 10.3 4.17 (12:30) 3.33 (21:30) 0 0 0 0 0
17-02-2021 16.9 (15:30) 5.3 (00:00) 11.1 3.61 (14:30) 2.5 (14:10) 0 0 0 0 0
16-02-2021 16.3 (16:30) 8.9 (00:00) 12.6 4.17 (01:40) 3.06 (02:20) 0 0 0 0 0
15-02-2021 12.4 (16:20) 6.9 (00:00) 9.6 7.22 (18:30) 5 (15:50) 0 0 0 0 0
14-02-2021 12.3 (12:40) 1.4 (00:00) 6.9 7.78 (15:20) 5.28 (15:20) 0 0 0 0 0
13-02-2021 16.5 (14:10) 6.1 (00:00) 11.3 17.5 (00:50) 10 (01:20) 0 0 0 0 0
12-02-2021 14.3 (17:20) 5.9 (00:00) 10.1 18.89 (23:00) 11.39 (21:20) 0.6 0 0.6 0 0
11-02-2021 18.8 (16:30) 1.6 (00:00) 10.2 9.44 (01:10) 6.11 (01:10) 0 0 0 0 0
10-02-2021 14.1 (16:30) 5.9 (00:00) 10 16.11 (14:40) 10.56 (14:40) 0.6 0 0.6 0 0
09-02-2021 10 (00:30) 4.9 (00:00) 7.5 8.61 (00:40) 5.83 (00:40) 0.3 0 0 0.3 0
08-02-2021 12 (17:10) 4.2 (00:00) 8.1 10.28 (19:30) 6.39 (23:30) 2 0 0.6 1.2 0.2
07-02-2021 13 (15:30) 6 (00:00) 9.5 13.89 (09:40) 10 (14:00) 0 0 0 0 0
06-02-2021 17.9 (14:40) 7.3 (00:00) 12.6 14.17 (17:30) 8.33 (17:40) 0 0 0 0 0
05-02-2021 15.9 (14:00) 6.9 (00:00) 11.4 11.67 (15:20) 7.78 (14:10) 0 0 0 0 0
04-02-2021 17.9 (14:40) 6.5 (00:00) 12.2 11.67 (19:30) 7.5 (19:30) 0 0 0 0 0
03-02-2021 19.3 (15:40) 4.2 (00:00) 11.7 6.11 (14:30) 3.89 (21:20) 0 0 0 0 0
02-02-2021 20.1 (15:40) 9.2 (00:00) 14.7 9.44 (05:00) 6.94 (00:40) 0 0 0 0 0
01-02-2021 18.5 (15:10) 9.8 (00:00) 14.2 22.5 (13:10) 14.17 (13:40) 0 0 0 0 0
31-01-2021 16.5 (14:50) 7.7 (00:00) 12.1 19.44 (11:10) 11.11 (12:00) 0 0 0 0 0
30-01-2021 18.2 (14:40) 6.9 (00:00) 12.6 17.5 (16:20) 10.56 (16:20) 0.4 0 0.2 0.2 0

Gráficas

Temp. máximas Temp. mínimas Temp. medias Precipitaciones Rachas de viento máximas Velocidades máximas media en intervalos de 10 minutos

Datos horarios

Fecha y hora oficial Temperatura (ºC) Velocidad del viento (km/h) Dirección del viento Racha (km/h) Dirección de racha Precipitación (mm) Presión (hPa) Tendencia (hPa) Humedad (%)
2021-02-28 23:00:00 6.8 0 Calma 5 Sudoeste 0 -- -- 88
2021-02-28 22:00:00 8.2 4 Sudoeste 13 Sudoeste 0 -- -- 83
2021-02-28 21:00:00 9.6 6 Sur 22 Sur 0 -- -- 79
2021-02-28 20:00:00 10.6 7 Sur 19 Sur 0 -- -- 75
2021-02-28 19:00:00 12 5 Sur 18 Sudeste 0 -- -- 72
2021-02-28 18:00:00 13.8 10 Sudeste 31 Sudeste 0 -- -- 65
2021-02-28 17:00:00 14.3 20 Sudeste 35 Este 0 -- -- 62
2021-02-28 16:00:00 14.5 15 Este 28 Este 0 -- -- 66
2021-02-28 15:00:00 14 12 Este 22 Este 0 -- -- 67
2021-02-28 14:00:00 12.2 8 Este 22 Este 0 -- -- 80
2021-02-28 13:00:00 12.2 13 Este 21 Sudeste 0 -- -- 78
2021-02-28 12:00:00 12 10 Este 20 Este 0 -- -- 78
2021-02-28 11:00:00 9.9 6 Nordeste 11 Nordeste 0 -- -- 81
2021-02-28 10:00:00 8.6 3 Sur 12 Sudoeste 0 -- -- 82
2021-02-28 09:00:00 7.8 9 Oeste 12 Sudoeste 0 -- -- 85
2021-02-28 08:00:00 7.8 7 Sudoeste 9 Sudoeste 0 -- -- 84
2021-02-28 07:00:00 8.1 8 Oeste 11 Sudoeste 0 -- -- 83
2021-02-28 06:00:00 8.1 6 Sur 14 Sur 0 -- -- 84
2021-02-28 05:00:00 8.4 2 Sur 12 Sur 0 -- -- 89
2021-02-28 04:00:00 8.8 4 Oeste 7 Oeste 0 -- -- 91
2021-02-28 03:00:00 8.9 2 Nordeste 9 Nordeste 0 -- -- 90
2021-02-28 02:00:00 9 6 Nordeste 9 Nordeste 0 -- -- 89
2021-02-28 01:00:00 9.1 3 Noroeste 7 Nordeste 0 -- -- 89
2021-02-28 00:00:00 9.6 7 Nordeste 15 Nordeste 0 -- -- 86
2021-02-27 23:00:00 9.2 12 Nordeste 19 Nordeste 0 -- -- 87
2021-02-27 22:00:00 8.7 13 Nordeste 22 Este 0 -- -- 89
2021-02-27 21:00:00 9.4 13 Nordeste 27 Este 0 -- -- 85
2021-02-27 20:00:00 10.3 14 Este 22 Este 0 -- -- 82
2021-02-27 19:00:00 12 13 Este 19 Este 0 -- -- 77
2021-02-27 18:00:00 13.7 10 Este 14 Este 0 -- -- 72
2021-02-27 17:00:00 14.4 4 Nordeste 11 Nordeste 0 -- -- 67
2021-02-27 16:00:00 14.1 4 Nordeste 13 Nordeste 0 -- -- 71
2021-02-27 15:00:00 13.3 9 Nordeste 19 Oeste 0 -- -- 73
2021-02-27 14:00:00 -- -- -- -- -- -- -- -- --
2021-02-27 13:00:00 11.2 8 Sudeste 14 Sudeste 0 -- -- 85
2021-02-27 12:00:00 9.8 6 Sudeste 13 Este 0 -- -- 94
2021-02-27 11:00:00 9.1 5 Sur 9 Sur 0 -- -- 97
2021-02-27 10:00:00 8 4 Sudoeste 13 Sudoeste 0 -- -- 98
2021-02-27 09:00:00 7.3 8 Sudoeste 13 Sudoeste 0 -- -- 98
2021-02-27 08:00:00 7.3 6 Sudoeste 11 Sudoeste 0 -- -- 98
2021-02-27 07:00:00 7.2 2 Oeste 5 Sudoeste 0 -- -- 98
2021-02-27 06:00:00 6.9 0 Calma 8 Oeste 0 -- -- 98
2021-02-27 05:00:00 6.3 6 Oeste 10 Noroeste 0 -- -- 98
2021-02-27 04:00:00 5.7 2 Oeste 9 Sudoeste 0 -- -- 98
2021-02-27 03:00:00 5.6 5 Sudoeste 9 Sudoeste 0 -- -- 97
2021-02-27 02:00:00 5.3 0 Calma 4 Sudoeste 0 -- -- 97
2021-02-27 01:00:00 5.6 0 Calma 6 Oeste 0 -- -- 96
2021-02-27 00:00:00 6 4 Oeste 8 Noroeste 0 -- -- 95
2021-02-26 23:00:00 7.4 5 Noroeste 7 Noroeste 0 -- -- 96
2021-02-26 22:00:00 7.7 2 Noroeste 6 Noroeste 0 -- -- 94
2021-02-26 21:00:00 8.4 3 Oeste 6 Oeste 0 -- -- 92
2021-02-26 20:00:00 9.6 0 Calma 6 Sudeste 0 -- -- 89
2021-02-26 19:00:00 11.6 4 Sudeste 11 Este 0 -- -- 83
2021-02-26 18:00:00 12.8 10 Este 15 Este 0 -- -- 80
2021-02-26 17:00:00 13.5 10 Este 14 Este 0 -- -- 77
2021-02-26 16:00:00 13.6 9 Este 13 Este 0 -- -- 76
2021-02-26 15:00:00 13.1 7 Este 13 Este 0 -- -- 82
2021-02-26 14:00:00 11.9 3 Sudeste 8 Nordeste 0 -- -- 85
2021-02-26 13:00:00 11.1 2 Norte 8 Noroeste 0 -- -- 91
2021-02-26 12:00:00 10 4 Nordeste 9 Nordeste 0 -- -- 97
2021-02-26 11:00:00 8.5 6 Nordeste 9 Nordeste 0 -- -- 98
2021-02-26 10:00:00 7.4 4 Nordeste 7 Nordeste 0 -- -- 98
2021-02-26 09:00:00 6.2 4 Nordeste 6 Nordeste 0 -- -- 98
2021-02-26 08:00:00 6.2 4 Noroeste 7 Oeste 0 -- -- 98
2021-02-26 07:00:00 4.6 3 Oeste 8 Oeste 0 -- -- 97
2021-02-26 06:00:00 4.2 4 Oeste 6 Oeste 0 -- -- 97
2021-02-26 05:00:00 4.4 4 Oeste 8 Oeste 0 -- -- 97
2021-02-26 04:00:00 5.1 4 Oeste 6 Noroeste 0 -- -- 96
2021-02-26 03:00:00 5.5 3 Oeste 6 Oeste 0 -- -- 96
2021-02-26 02:00:00 6 0 Calma 6 Oeste 0 -- -- 95
2021-02-26 01:00:00 6.6 2 Oeste 5 Oeste 0 -- -- 94
2021-02-26 00:00:00 7.4 0 Calma 9 Oeste 0 -- -- 94
2021-02-25 23:00:00 8.2 6 Oeste 13 Oeste 0 -- -- 93
2021-02-25 22:00:00 9 5 Oeste 12 Sudoeste 0 -- -- 90
2021-02-25 21:00:00 10.5 7 Oeste 10 Sudoeste 0 -- -- 86
2021-02-25 20:00:00 11.6 4 Sudoeste 10 Oeste 0 -- -- 83
2021-02-25 19:00:00 13.2 0 Calma 10 Sur 0 -- -- 76
2021-02-25 18:00:00 16.4 3 Este 12 Este 0 -- -- 63
2021-02-25 17:00:00 16.8 6 Nordeste 15 Nordeste 0 -- -- 61
2021-02-25 16:00:00 17 9 Este 19 Nordeste 0 -- -- 61
2021-02-25 15:00:00 16.4 12 Este 26 Nordeste 0 -- -- 62
2021-02-25 14:00:00 15.2 11 Este 20 Este 0 -- -- 66
2021-02-25 13:00:00 14.7 10 Este 19 Este 0 -- -- 68
2021-02-25 12:00:00 13.2 5 Este 12 Nordeste 0 -- -- 77
2021-02-25 11:00:00 10.7 8 Nordeste 12 Nordeste 0 -- -- 87
2021-02-25 10:00:00 8.3 4 Este 7 Nordeste 0 -- -- 96
2021-02-25 09:00:00 6.8 0 Calma 4 Noroeste 0 -- -- 97
2021-02-25 08:00:00 6 3 Oeste 6 Noroeste 0 -- -- 97
2021-02-25 07:00:00 5.4 0 Calma 6 Noroeste 0 -- -- 96
2021-02-25 06:00:00 5.2 2 Oeste 5 Noroeste 0 -- -- 96
2021-02-25 05:00:00 5.1 3 Oeste 6 Noroeste 0 -- -- 94
2021-02-25 04:00:00 6.1 3 Oeste 9 Nordeste 0 -- -- 93
2021-02-25 03:00:00 6.4 7 Nordeste 12 Nordeste 0 -- -- 94
2021-02-25 02:00:00 6.6 0 Calma 5 Este 0 -- -- 95
2021-02-25 01:00:00 6.8 0 Calma 7 Oeste 0 -- -- 94
2021-02-25 00:00:00 6.9 0 Calma 6 Noroeste 0 -- -- 93
2021-02-24 23:00:00 7.8 3 Oeste 8 Sudoeste 0 -- -- 89
2021-02-24 22:00:00 10.1 6 Sudoeste 12 Sudoeste 0 -- -- 83
2021-02-24 21:00:00 10.9 6 Sudoeste 14 Oeste 0 -- -- 81
2021-02-24 20:00:00 12.6 6 Oeste 17 Sudeste 0 -- -- 77
2021-02-24 19:00:00 14.6 5 Sudeste 19 Este 0 -- -- 73
2021-02-24 18:00:00 16.2 11 Este 21 Este 0 -- -- 71
2021-02-24 17:00:00 16.3 14 Este 22 Este 0 -- -- 70
2021-02-24 16:00:00 16.4 13 Este 20 Este 0 -- -- 70
2021-02-24 15:00:00 15.5 11 Este 19 Este 0 -- -- 72
2021-02-24 14:00:00 14 9 Este 15 Nordeste 0 -- -- 78
2021-02-24 13:00:00 13.3 8 Este 13 Nordeste 0 -- -- 79
2021-02-24 12:00:00 12.2 4 Este 12 Nordeste 0 -- -- 87
2021-02-24 11:00:00 11.6 8 Este 14 Nordeste 0 -- -- 90
2021-02-24 10:00:00 10.5 9 Nordeste 13 Nordeste 0 -- -- 95
2021-02-24 09:00:00 9.6 7 Nordeste 10 Norte 0 -- -- 95
2021-02-24 08:00:00 9.1 3 Este 5 Este 0 -- -- 96
2021-02-24 07:00:00 9 3 Nordeste 5 Este 0 -- -- 96
2021-02-24 06:00:00 9 0 Calma 3 Noroeste 0 -- -- 96
2021-02-24 05:00:00 8.7 0 Calma 10 Nordeste 0 -- -- 96
2021-02-24 04:00:00 8.5 2 Oeste 4 Oeste 0 -- -- 96
2021-02-24 03:00:00 7.8 2 Nordeste 8 Nordeste 0 -- -- 96
2021-02-24 02:00:00 7.4 4 Oeste 5 Noroeste 0 -- -- 96
2021-02-24 01:00:00 7.9 2 Noroeste 6 Noroeste 0 -- -- 95
2021-02-24 00:00:00 8 4 Oeste 6 Oeste 0 -- -- 94
2021-02-23 23:00:00 8.7 3 Oeste 8 Oeste 0 -- -- 93
2021-02-23 22:00:00 9.4 4 Oeste 9 Oeste 0 -- -- 91
2021-02-23 21:00:00 10.1 6 Oeste 9 Oeste 0 -- -- 89
2021-02-23 20:00:00 11 6 Noroeste 9 Noroeste 0 -- -- 88
2021-02-23 19:00:00 13.1 3 Noroeste 8 Nordeste 0 -- -- 80
2021-02-23 18:00:00 15.4 6 Nordeste 13 Este 0 -- -- 71
2021-02-23 17:00:00 15.8 5 Nordeste 15 Nordeste 0 -- -- 68
2021-02-23 16:00:00 15.9 8 Este 15 Este 0 -- -- 67
2021-02-23 15:00:00 15.4 3 Noroeste 12 Este 0 -- -- 69
2021-02-23 14:00:00 14.5 5 Este 11 Este 0 -- -- 71
2021-02-23 13:00:00 13.3 3 Nordeste 12 Este 0 -- -- 74
2021-02-23 12:00:00 12.7 6 Este 10 Este 0 -- -- 79
2021-02-23 11:00:00 11.1 6 Este 13 Nordeste 0 -- -- 85
2021-02-23 10:00:00 9.3 3 Sudoeste 7 Sudoeste 0 -- -- 90
2021-02-23 09:00:00 8.6 2 Nordeste 6 Oeste 0 -- -- 93
2021-02-23 08:00:00 8.2 4 Oeste 6 Oeste 0 -- -- 92
2021-02-23 07:00:00 8.3 5 Oeste 9 Oeste 0 -- -- 91
2021-02-23 06:00:00 8.3 5 Oeste 13 Sudoeste 0 -- -- 91
2021-02-23 05:00:00 8.2 0 Calma 10 Sudoeste 0 -- -- 91
2021-02-23 04:00:00 8 8 Sudoeste 10 Sudoeste 0 -- -- 92
2021-02-23 03:00:00 7.7 4 Oeste 11 Sudoeste 0 -- -- 92
2021-02-23 02:00:00 8.1 6 Oeste 9 Sudoeste 0 -- -- 89
2021-02-23 01:00:00 8.2 7 Sudoeste 13 Sudoeste 0 -- -- 89
2021-02-23 00:00:00 8.4 2 Sudoeste 9 Sudoeste 0 -- -- 88
2021-02-22 23:00:00 9.1 5 Sudoeste 12 Sudoeste 0 -- -- 88
2021-02-22 22:00:00 9.1 8 Sudoeste 15 Sudoeste 0 -- -- 87
2021-02-22 21:00:00 9.4 8 Sudoeste 16 Sudoeste 0 -- -- 86
2021-02-22 20:00:00 9.2 8 Sur 22 Sur 0 -- -- 86
2021-02-22 19:00:00 10 13 Sur 18 Sur 0 -- -- 83
2021-02-22 18:00:00 11 10 Sudoeste 19 Sudoeste 0 -- -- 79
2021-02-22 17:00:00 11.1 12 Sur 21 Sur 0 -- -- 80
2021-02-22 16:00:00 11.1 12 Sur 24 Sudoeste 0 -- -- 80
2021-02-22 15:00:00 10.5 18 Sudoeste 25 Sudoeste 0 -- -- 83
2021-02-22 14:00:00 9.4 14 Sudoeste 29 Sudoeste 0 -- -- 86
2021-02-22 13:00:00 9 14 Sur 21 Sur 0 -- -- 88
2021-02-22 12:00:00 8.8 12 Sudoeste 25 Sur 0 -- -- 91
2021-02-22 11:00:00 8.8 10 Sudoeste 16 Sudoeste 1.8 -- -- 93
2021-02-22 10:00:00 8.8 14 Sudoeste 33 Este 1.4 -- -- 88
2021-02-22 09:00:00 13.2 24 Este 35 Este 0 -- -- 79
2021-02-22 08:00:00 12.9 6 Sur 31 Este 0 -- -- 81
2021-02-22 07:00:00 13.2 17 Este 44 Este 0 -- -- 82
2021-02-22 06:00:00 12.9 21 Este 33 Este 0.4 -- -- 85
2021-02-22 05:00:00 12.9 21 Este 36 Este 1.2 -- -- 87
2021-02-22 04:00:00 13.9 27 Este 47 Sudeste 0.2 -- -- 79
2021-02-22 03:00:00 13.5 19 Este 42 Este 0 -- -- 76
2021-02-22 02:00:00 13.6 27 Este 39 Este 0 -- -- 74
2021-02-22 01:00:00 13.4 26 Este 41 Este 0 -- -- 73
2021-02-22 00:00:00 13.4 23 Este 37 Este 0 -- -- 71
2021-02-21 23:00:00 13.4 22 Este 35 Este 0 -- -- 70
2021-02-21 22:00:00 13.4 13 Nordeste 33 Este 0 -- -- 69
2021-02-21 21:00:00 13.5 16 Nordeste 33 Este 0 -- -- 69
2021-02-21 20:00:00 13.9 22 Este 40 Nordeste 0 -- -- 68
2021-02-21 19:00:00 14 16 Este 34 Este 0 -- -- 69
2021-02-21 18:00:00 14.7 17 Este 35 Sudeste 0 -- -- 65
2021-02-21 17:00:00 15.2 27 Este 45 Este 0 -- -- 65
2021-02-21 16:00:00 16.1 27 Este 44 Este 0 -- -- 61
2021-02-21 15:00:00 15.5 28 Este 51 Este 0 -- -- 63
2021-02-21 14:00:00 15.2 32 Este 48 Este 0 -- -- 64
2021-02-21 13:00:00 14.7 22 Este 32 Este 0 -- -- 65
2021-02-21 12:00:00 14 17 Este 29 Este 0 -- -- 67
2021-02-21 11:00:00 11.7 6 Sudeste 20 Sudeste 0 -- -- 74
2021-02-21 10:00:00 10.2 9 Este 21 Nordeste 0 -- -- 78
2021-02-21 09:00:00 8.9 14 Este 24 Nordeste 0 -- -- 82
2021-02-21 08:00:00 7.6 9 Este 17 Este 0 -- -- 86
2021-02-21 07:00:00 6.9 9 Nordeste 16 Este 0 -- -- 89
2021-02-21 06:00:00 6.1 2 Norte 6 Este 0 -- -- 88
2021-02-21 05:00:00 7.6 0 Calma 21 Este 0 -- -- 82
2021-02-21 04:00:00 8.8 13 Este 28 Este 0 -- -- 77
2021-02-21 03:00:00 8.5 18 Este 26 Este 0 -- -- 79
2021-02-21 02:00:00 8.5 10 Este 22 Este 0 -- -- 79
2021-02-21 01:00:00 9 15 Este 21 Este 0 -- -- 76
2021-02-21 00:00:00 8.8 5 Este 15 Este 0 -- -- 75
2021-02-20 23:00:00 9.6 6 Nordeste 15 Nordeste 0 -- -- 73
2021-02-20 22:00:00 10.4 11 Nordeste 28 Este 0 -- -- 71
2021-02-20 21:00:00 10.8 16 Este 37 Este 0 -- -- 72
2021-02-20 20:00:00 11.4 29 Este 44 Este 0 -- -- 72
2021-02-20 19:00:00 12 27 Este 49 Este 0 -- -- 72
2021-02-20 18:00:00 13.3 28 Este 46 Este 0 -- -- 67
2021-02-20 17:00:00 15.1 23 Este 43 Este 0 -- -- 61
2021-02-20 16:00:00 15.9 27 Este 44 Este 0 -- -- 59
2021-02-20 15:00:00 16.3 21 Este 44 Este 0 -- -- 59
2021-02-20 14:00:00 16.7 19 Este 37 Este 0 -- -- 59
2021-02-20 13:00:00 15.4 23 Este 36 Este 0 -- -- 66
2021-02-20 12:00:00 13.6 12 Este 28 Sudeste 0 -- -- 72
2021-02-20 11:00:00 11.9 18 Sudeste 29 Este 0 -- -- 77
2021-02-20 10:00:00 8.2 4 Este 8 Este 0 -- -- 92
2021-02-20 09:00:00 4.2 2 Este 8 Sur 0 -- -- 96
2021-02-20 08:00:00 4.4 0 Calma 5 Oeste 0 -- -- 97
2021-02-20 07:00:00 3.8 3 Nordeste 7 Nordeste 0 -- -- 94
2021-02-20 06:00:00 4.1 0 Calma 6 Noroeste 0 -- -- 95
2021-02-20 05:00:00 4.7 0 Calma 12 Este 0 -- -- 95
2021-02-20 04:00:00 4.4 5 Sudoeste 11 Sudeste 0 -- -- 91
2021-02-20 03:00:00 6.8 3 Este 12 Nordeste 0 -- -- 91
2021-02-20 02:00:00 7.3 4 Nordeste 16 Este 0 -- -- 89
2021-02-20 01:00:00 8.5 4 Norte 13 Nordeste 0 -- -- 87
2021-02-20 00:00:00 8.5 4 Norte 8 Nordeste 0 -- -- 83
2021-02-19 23:00:00 8.3 3 Oeste 6 Noroeste 0 -- -- 82
2021-02-19 22:00:00 10.1 0 Calma 8 Sudeste 0 -- -- 73
2021-02-19 21:00:00 11.8 3 Sur 15 Sudeste 0 -- -- 66
2021-02-19 20:00:00 14.1 6 Este 29 Este 0 -- -- 58
2021-02-19 19:00:00 15.5 9 Este 32 Este 0 -- -- 50
2021-02-19 18:00:00 17 21 Este 36 Este 0 -- -- 44
2021-02-19 17:00:00 17.8 14 Este 22 Este 0 -- -- 51
2021-02-19 16:00:00 17.3 9 Este 15 Este 0 -- -- 59
2021-02-19 15:00:00 15.4 9 Este 15 Nordeste 0 -- -- 67
2021-02-19 14:00:00 12 8 Nordeste 13 Este 0 -- -- 82
2021-02-19 13:00:00 8.6 6 Nordeste 12 Nordeste 0 -- -- 99
2021-02-19 12:00:00 7.1 5 Nordeste 9 Nordeste 0 -- -- 99
2021-02-19 11:00:00 6.5 5 Nordeste 9 Norte 0 -- -- 99
2021-02-19 10:00:00 5.6 4 Nordeste 9 Nordeste 0 -- -- 98
2021-02-19 09:00:00 5.6 4 Nordeste 6 Nordeste 0 -- -- 98
2021-02-19 08:00:00 5.5 3 Sudoeste 6 Oeste 0 -- -- 98
2021-02-19 07:00:00 5.5 5 Sudoeste 6 Sudoeste 0 -- -- 98
2021-02-19 06:00:00 5.4 0 Calma 4 Nordeste 0 -- -- 98
2021-02-19 05:00:00 5.2 0 Calma 5 Oeste 0 -- -- 97
2021-02-19 04:00:00 4.3 0 Calma 8 Nordeste 0 -- -- 96
2021-02-19 03:00:00 4.8 2 Noroeste 6 Oeste 0 -- -- 95
2021-02-19 02:00:00 5.3 4 Oeste 6 Oeste 0 -- -- 95
2021-02-19 01:00:00 6.2 0 Calma 7 Oeste 0 -- -- 94
2021-02-19 00:00:00 6.7 2 Noroeste 7 Oeste 0 -- -- 93
2021-02-18 23:00:00 7.4 4 Oeste 13 Sudoeste 0 -- -- 92
2021-02-18 22:00:00 8.6 7 Oeste 14 Sudoeste 0 -- -- 87
2021-02-18 21:00:00 9.5 8 Oeste 12 Oeste 0 -- -- 92
2021-02-18 20:00:00 10.5 4 Oeste 7 Oeste 0 -- -- 89
2021-02-18 19:00:00 12.9 0 Calma 7 Nordeste 0 -- -- 82
2021-02-18 18:00:00 16.1 3 Nordeste 10 Nordeste 0 -- -- 71
2021-02-18 17:00:00 16.6 8 Este 15 Este 0 -- -- 67
2021-02-18 16:00:00 16 8 Este 11 Nordeste 0 -- -- 65
2021-02-18 15:00:00 15 5 Nordeste 13 Este 0 -- -- 70
2021-02-18 14:00:00 13.6 5 Este 13 Nordeste 0 -- -- 79
2021-02-18 13:00:00 11.5 5 Nordeste 15 Nordeste 0 -- -- 89
2021-02-18 12:00:00 9.3 7 Este 10 Este 0 -- -- 99
2021-02-18 11:00:00 7.8 6 Este 10 Este 0 -- -- 99
2021-02-18 10:00:00 6.6 2 Nordeste 5 Nordeste 0 -- -- 98
2021-02-18 09:00:00 5.7 3 Oeste 5 Sudoeste 0 -- -- 98
2021-02-18 08:00:00 4.8 0 Calma 6 Oeste 0 -- -- 98
2021-02-18 07:00:00 4.7 4 Noroeste 8 Oeste 0 -- -- 98
2021-02-18 06:00:00 4.1 3 Oeste 5 Noroeste 0 -- -- 96
2021-02-18 05:00:00 4.9 5 Noroeste 8 Noroeste 0 -- -- 97
2021-02-18 04:00:00 5.3 2 Noroeste 5 Oeste 0 -- -- 96
2021-02-18 03:00:00 5.9 3 Oeste 6 Oeste 0 -- -- 96
2021-02-18 02:00:00 6.1 3 Noroeste 5 Oeste 0 -- -- 95
2021-02-18 01:00:00 6.7 0 Calma 7 Noroeste 0 -- -- 94
2021-02-18 00:00:00 7.6 0 Calma 4 Noroeste 0 -- -- 93
2021-02-17 23:00:00 8.3 3 Noroeste 6 Oeste 0 -- -- 91
2021-02-17 22:00:00 9.2 0 Calma 7 Noroeste 0 -- -- 89
2021-02-17 21:00:00 10.3 3 Noroeste 8 Noroeste 0 -- -- 85
2021-02-17 20:00:00 11.3 3 Oeste 5 Oeste 0 -- -- 82
2021-02-17 19:00:00 12.9 0 Calma 5 Este 0 -- -- 76
2021-02-17 18:00:00 16.5 6 Este 11 Este 0 -- -- 62
2021-02-17 17:00:00 16.9 7 Este 13 Este 0 -- -- 62
2021-02-17 16:00:00 16.8 8 Este 12 Este 0 -- -- 59
2021-02-17 15:00:00 16.6 6 Este 13 Este 0 -- -- 62
2021-02-17 14:00:00 15.4 8 Nordeste 12 Este 0 -- -- 70
2021-02-17 13:00:00 14 7 Este 12 Este 0 -- -- 75
2021-02-17 12:00:00 12.5 7 Este 10 Este 0 -- -- 79
2021-02-17 11:00:00 10 5 Nordeste 8 Nordeste 0 -- -- 89
2021-02-17 10:00:00 7.6 2 Sudeste 5 Nordeste 0 -- -- 96
2021-02-17 09:00:00 5.8 3 Oeste 5 Oeste 0 -- -- 97
2021-02-17 08:00:00 5.4 0 Calma 4 Noroeste 0 -- -- 96
2021-02-17 07:00:00 5.8 3 Noroeste 7 Este 0 -- -- 96
2021-02-17 06:00:00 6.4 3 Oeste 5 Noroeste 0 -- -- 95
2021-02-17 05:00:00 6.8 2 Este 4 Este 0 -- -- 94
2021-02-17 04:00:00 7.3 0 Calma 7 Noroeste 0 -- -- 94
2021-02-17 03:00:00 8.3 6 Noroeste 11 Noroeste 0 -- -- 93
2021-02-17 02:00:00 8.4 3 Oeste 7 Oeste 0 -- -- 91
2021-02-17 01:00:00 9.1 6 Noroeste 9 Noroeste 0 -- -- 91
2021-02-17 00:00:00 9.1 4 Oeste 8 Oeste 0 -- -- 91
2021-02-16 23:00:00 9.1 4 Oeste 9 Oeste 0 -- -- 91
2021-02-16 22:00:00 9.4 4 Oeste 8 Oeste 0 -- -- 89
2021-02-16 21:00:00 10.1 4 Oeste 10 Oeste 0 -- -- 86
2021-02-16 20:00:00 10.8 6 Oeste 9 Oeste 0 -- -- 85
2021-02-16 19:00:00 11.4 4 Oeste 7 Noroeste 0 -- -- 82
2021-02-16 18:00:00 14.1 2 Noroeste 8 Este 0 -- -- 73
2021-02-16 17:00:00 15.8 4 Este 9 Este 0 -- -- 65
2021-02-16 16:00:00 15.7 5 Oeste 11 Sudoeste 0 -- -- 65
2021-02-16 15:00:00 15.4 5 Este 15 Sudoeste 0 -- -- 65
2021-02-16 14:00:00 14.2 7 Este 14 Este 0 -- -- 67
2021-02-16 13:00:00 13.2 6 Sudeste 15 Sudeste 0 -- -- 69
2021-02-16 12:00:00 11.9 5 Este 9 Nordeste 0 -- -- 78
2021-02-16 11:00:00 10.9 4 Este 6 Este 0 -- -- 83
2021-02-16 10:00:00 9.8 3 Nordeste 6 Nordeste 0 -- -- 87
2021-02-16 09:00:00 9.3 3 Nordeste 5 Nordeste 0 -- -- 90
2021-02-16 08:00:00 8.9 0 Calma 7 Nordeste 0 -- -- 90
2021-02-16 07:00:00 8.9 5 Nordeste 9 Nordeste 0 -- -- 89
2021-02-16 06:00:00 9 0 Calma 8 Nordeste 0 -- -- 88
2021-02-16 05:00:00 9.2 5 Nordeste 10 Nordeste 0 -- -- 87
2021-02-16 04:00:00 9.5 8 Nordeste 12 Nordeste 0 -- -- 86
2021-02-16 03:00:00 9.5 8 Nordeste 14 Este 0 -- -- 86
2021-02-16 02:00:00 9.9 10 Este 15 Este 0 -- -- 85
2021-02-16 01:00:00 9.9 7 Este 12 Este 0 -- -- 85
2021-02-16 00:00:00 10 7 Este 12 Nordeste 0 -- -- 84
2021-02-15 23:00:00 10.4 4 Nordeste 16 Este 0 -- -- 83
2021-02-15 22:00:00 10.2 7 Este 19 Sudeste 0 -- -- 83
2021-02-15 21:00:00 10.2 12 Este 24 Este 0 -- -- 82
2021-02-15 20:00:00 10.3 14 Este 25 Este 0 -- -- 81
2021-02-15 19:00:00 10.6 10 Este 26 Este 0 -- -- 81
2021-02-15 18:00:00 11.7 13 Este 24 Nordeste 0 -- -- 78
2021-02-15 17:00:00 12.1 14 Este 22 Sudeste 0 -- -- 75
2021-02-15 16:00:00 12.2 16 Este 24 Este 0 -- -- 74
2021-02-15 15:00:00 12.3 13 Este 19 Sudeste 0 -- -- 74
2021-02-15 14:00:00 12 10 Este 17 Este 0 -- -- 74
2021-02-15 13:00:00 10.8 5 Nordeste 14 Nordeste 0 -- -- 78
2021-02-15 12:00:00 10.1 4 Sudeste 12 Este 0 -- -- 81
2021-02-15 11:00:00 9.3 5 Este 12 Este 0 -- -- 82
2021-02-15 10:00:00 8.3 5 Este 9 Nordeste 0 -- -- 84
2021-02-15 09:00:00 7.5 6 Este 11 Este 0 -- -- 86
2021-02-15 08:00:00 7.3 5 Nordeste 10 Nordeste 0 -- -- 86
2021-02-15 07:00:00 7.1 2 Este 6 Este 0 -- -- 86
2021-02-15 06:00:00 7 0 Calma 6 Sudeste 0 -- -- 87
2021-02-15 05:00:00 7.1 5 Nordeste 10 Nordeste 0 -- -- 86
2021-02-15 04:00:00 7.2 3 Este 6 Nordeste 0 -- -- 85
2021-02-15 03:00:00 7.2 3 Nordeste 9 Este 0 -- -- 86
2021-02-15 02:00:00 7.1 4 Este 8 Nordeste 0 -- -- 86
2021-02-15 01:00:00 7.1 6 Este 13 Nordeste 0 -- -- 86
2021-02-15 00:00:00 7.1 7 Este 14 Este 0 -- -- 86
2021-02-14 23:00:00 6.8 5 Sudeste 12 Este 0 -- -- 86
2021-02-14 22:00:00 7.5 6 Este 21 Este 0 -- -- 84
2021-02-14 21:00:00 8.1 8 Este 25 Este 0 -- -- 81
2021-02-14 20:00:00 8.9 11 Este 17 Sudeste 0 -- -- 83
2021-02-14 19:00:00 9.7 13 Sudeste 24 Este 0 -- -- 78
2021-02-14 18:00:00 10.2 9 Este 24 Este 0 -- -- 82
2021-02-14 17:00:00 11.2 15 Este 27 Este 0 -- -- 80
2021-02-14 16:00:00 10.9 18 Este 28 Este 0 -- -- 81
2021-02-14 15:00:00 11.3 17 Este 26 Este 0 -- -- 80
2021-02-14 14:00:00 11.4 12 Este 28 Este 0 -- -- 81
2021-02-14 13:00:00 12.3 16 Este 27 Este 0 -- -- 75
2021-02-14 12:00:00 10.8 14 Este 22 Este 0 -- -- 82
2021-02-14 11:00:00 7 5 Este 9 Este 0 -- -- 94
2021-02-14 10:00:00 4.6 3 Este 6 Sur 0 -- -- 97
2021-02-14 09:00:00 1.9 5 Oeste 10 Noroeste 0 -- -- 97
2021-02-14 08:00:00 1.6 5 Oeste 9 Oeste 0 -- -- 96
2021-02-14 07:00:00 1.6 0 Calma 8 Noroeste 0 -- -- 96
2021-02-14 06:00:00 2.1 6 Noroeste 8 Noroeste 0 -- -- 96
2021-02-14 05:00:00 2.4 4 Oeste 12 Sudoeste 0 -- -- 95
2021-02-14 04:00:00 2.9 5 Oeste 12 Sudoeste 0 -- -- 95
2021-02-14 03:00:00 3.6 4 Oeste 8 Oeste 0 -- -- 93
2021-02-14 02:00:00 4.3 5 Oeste 9 Noroeste 0 -- -- 92
2021-02-14 01:00:00 5.2 7 Oeste 13 Oeste 0 -- -- 90
2021-02-14 00:00:00 6.6 9 Oeste 13 Oeste 0 -- -- 88
2021-02-13 23:00:00 7.4 9 Oeste 13 Oeste 0 -- -- 85
2021-02-13 22:00:00 7.8 4 Oeste 10 Sudoeste 0 -- -- 81
2021-02-13 21:00:00 9.9 8 Oeste 17 Sudoeste 0 -- -- 76
2021-02-13 20:00:00 11.8 8 Sudoeste 21 Sudoeste 0 -- -- 68
2021-02-13 19:00:00 12.8 15 Sudoeste 22 Oeste 0 -- -- 64
2021-02-13 18:00:00 14 15 Oeste 25 Oeste 0 -- -- 58
2021-02-13 17:00:00 14.6 13 Oeste 33 Oeste 0 -- -- 57
2021-02-13 16:00:00 15.9 12 Oeste 36 Noroeste 0 -- -- 53
2021-02-13 15:00:00 16.2 23 Oeste 38 Oeste 0 -- -- 51
2021-02-13 14:00:00 16.4 21 Oeste 37 Oeste 0 -- -- 50
2021-02-13 13:00:00 15.9 21 Oeste 29 Noroeste 0 -- -- 56
2021-02-13 08:00:00 -- -- -- -- -- -- -- -- --
2021-02-13 07:00:00 8.1 9 Oeste 16 Sudoeste 0 -- -- 83
2021-02-13 06:00:00 9.9 10 Norte 36 Oeste 0 -- -- 78
2021-02-13 05:00:00 10.4 18 Noroeste 40 Oeste 0 -- -- 77
2021-02-13 04:00:00 10.7 21 Oeste 40 Oeste 0 -- -- 76
2021-02-13 03:00:00 10.9 23 Noroeste 60 Noroeste 0 -- -- 76
2021-02-13 02:00:00 11.5 34 Oeste 58 Oeste 0 -- -- 74
2021-02-13 01:00:00 11.7 34 Oeste 63 Noroeste 0 -- -- 74
2021-02-13 00:00:00 11.9 33 Oeste 62 Oeste 0 -- -- 72
2021-02-12 23:00:00 12.3 40 Oeste 68 Oeste 0 -- -- 71
2021-02-12 22:00:00 12.5 36 Oeste 67 Oeste 0 -- -- 71
2021-02-12 21:00:00 12.8 36 Oeste 63 Oeste 0 -- -- 69
2021-02-12 20:00:00 12.9 28 Oeste 60 Oeste 0 -- -- 71
2021-02-12 19:00:00 13.2 36 Oeste 57 Oeste 0 -- -- 73
2021-02-12 18:00:00 14 28 Oeste 50 Oeste 0 -- -- 71
2021-02-12 17:00:00 13.7 23 Oeste 39 Oeste 0 -- -- 77
2021-02-12 16:00:00 12.8 22 Oeste 38 Oeste 0 -- -- 81
2021-02-12 15:00:00 12.3 12 Oeste 26 Oeste 0 -- -- 88
2021-02-12 14:00:00 11.5 10 Oeste 14 Noroeste 0 -- -- 94
2021-02-12 13:00:00 10.4 6 Nordeste 10 Nordeste 0 -- -- 95
2021-02-12 12:00:00 9.9 4 Oeste 11 Oeste 0 -- -- 96
2021-02-12 11:00:00 8.4 2 Noroeste 6 Noroeste 0.6 -- -- 96
2021-02-12 10:00:00 7.2 0 Calma 6 Nordeste 0 -- -- 96
2021-02-12 09:00:00 6.4 3 Oeste 9 Oeste 0 -- -- 96
2021-02-12 08:00:00 6.3 7 Oeste 10 Oeste 0 -- -- 96
2021-02-12 07:00:00 6.2 0 Calma 8 Noroeste 0 -- -- 96
2021-02-12 06:00:00 6.6 5 Noroeste 8 Oeste 0 -- -- 95
2021-02-12 05:00:00 6.7 2 Oeste 5 Nordeste 0 -- -- 95
2021-02-12 04:00:00 6.7 3 Oeste 5 Nordeste 0 -- -- 95
2021-02-12 03:00:00 7.1 4 Noroeste 6 Noroeste 0 -- -- 94
2021-02-12 02:00:00 7.5 4 Nordeste 7 Nordeste 0 -- -- 92
2021-02-12 01:00:00 8.5 4 Noroeste 9 Oeste 0 -- -- 91
2021-02-12 00:00:00 8.9 2 Oeste 10 Oeste 0 -- -- 89
2021-02-11 23:00:00 9.6 5 Oeste 16 Oeste 0 -- -- 85
2021-02-11 22:00:00 10.9 8 Oeste 18 Oeste 0 -- -- 81
2021-02-11 21:00:00 10.9 6 Noroeste 10 Oeste 0 -- -- 81
2021-02-11 20:00:00 11.4 3 Sudoeste 8 Noroeste 0 -- -- 80
2021-02-11 19:00:00 13.5 2 Sudoeste 8 Noroeste 0 -- -- 73
2021-02-11 18:00:00 16.2 4 Noroeste 18 Oeste 0 -- -- 67
2021-02-11 17:00:00 18.3 13 Oeste 26 Oeste 0 -- -- 54
2021-02-11 16:00:00 18.2 15 Oeste 25 Oeste 0 -- -- 55
2021-02-11 15:00:00 16.1 6 Este 12 Nordeste 0 -- -- 57
2021-02-11 14:00:00 14.5 8 Este 12 Nordeste 0 -- -- 61
2021-02-11 13:00:00 12.4 8 Este 15 Nordeste 0 -- -- 68
2021-02-11 12:00:00 9.8 8 Nordeste 13 Este 0 -- -- 70
2021-02-11 11:00:00 7.6 6 Este 13 Nordeste 0 -- -- 79
2021-02-11 10:00:00 5.3 4 Sudeste 9 Noroeste 0 -- -- 87
2021-02-11 09:00:00 3.2 6 Oeste 15 Oeste 0 -- -- 92
2021-02-11 08:00:00 1.9 6 Oeste 13 Oeste 0 -- -- 91
2021-02-11 07:00:00 2.6 8 Oeste 14 Oeste 0 -- -- 92
2021-02-11 06:00:00 2.6 3 Oeste 9 Noroeste 0 -- -- 90
2021-02-11 05:00:00 3.2 4 Noroeste 9 Oeste 0 -- -- 88
2021-02-11 04:00:00 4.7 4 Oeste 13 Norte 0 -- -- 84
2021-02-11 03:00:00 7.2 4 Norte 25 Oeste 0 -- -- 75
2021-02-11 02:00:00 8.1 18 Oeste 34 Sudoeste 0 -- -- 73
2021-02-11 01:00:00 8 18 Oeste 28 Sudoeste 0 -- -- 72
2021-02-11 00:00:00 7.3 13 Sudoeste 17 Sudoeste 0 -- -- 73
2021-02-10 23:00:00 8.9 8 Oeste 21 Oeste 0 -- -- 67
2021-02-10 22:00:00 9.5 13 Sudoeste 32 Oeste 0 -- -- 67
2021-02-10 21:00:00 10.3 13 Oeste 31 Oeste 0 -- -- 66
2021-02-10 20:00:00 11 14 Oeste 36 Oeste 0 -- -- 64
2021-02-10 19:00:00 11.5 14 Oeste 34 Oeste 0 -- -- 61
2021-02-10 18:00:00 12.6 20 Oeste 52 Oeste 0 -- -- 59
2021-02-10 17:00:00 13.8 32 Oeste 46 Oeste 0 -- -- 54
2021-02-10 16:00:00 13.8 31 Oeste 54 Oeste 0 -- -- 54
2021-02-10 15:00:00 13.5 34 Oeste 58 Oeste 0 -- -- 57
2021-02-10 14:00:00 12.9 28 Oeste 49 Oeste 0 -- -- 62
2021-02-10 13:00:00 11.6 28 Oeste 48 Oeste 0 -- -- 73
2021-02-10 12:00:00 9.1 21 Oeste 37 Oeste 0 -- -- 83
2021-02-10 11:00:00 8.2 14 Oeste 22 Oeste 0 -- -- 92
2021-02-10 10:00:00 8 13 Sudoeste 21 Sudoeste 0 -- -- 97
2021-02-10 09:00:00 6.6 5 Sudoeste 10 Nordeste 0 -- -- 98
2021-02-10 08:00:00 6.2 4 Nordeste 7 Nordeste 0.2 -- -- 97
2021-02-10 07:00:00 6.2 0 Calma 9 Nordeste 0.4 -- -- 97
2021-02-10 06:00:00 6.3 4 Nordeste 11 Nordeste 0 -- -- 96
2021-02-10 05:00:00 6.5 6 Oeste 12 Sudoeste 0 -- -- 96
2021-02-10 04:00:00 6 2 Norte 10 Nordeste 0 -- -- 95
2021-02-10 03:00:00 6.6 4 Nordeste 11 Sudoeste 0 -- -- 94
2021-02-10 02:00:00 6.6 4 Sudeste 15 Oeste 0 -- -- 92
2021-02-10 01:00:00 6 4 Oeste 6 Noroeste 0 -- -- 96
2021-02-10 00:00:00 6.7 5 Nordeste 10 Oeste 0 -- -- 96
2021-02-09 23:00:00 6.9 7 Oeste 15 Oeste 0 -- -- 97
2021-02-09 22:00:00 6.2 4 Oeste 10 Oeste 0 -- -- 95
2021-02-09 21:00:00 6 2 Oeste 10 Noroeste 0 -- -- 95
2021-02-09 20:00:00 7.7 6 Oeste 16 Noroeste 0 -- -- 94
2021-02-09 19:00:00 8.4 8 Sudoeste 21 Oeste 0 -- -- 94
2021-02-09 18:00:00 8.8 4 Nordeste 17 Nordeste 0 -- -- 94
2021-02-09 17:00:00 9 4 Este 9 Nordeste 0 -- -- 93
2021-02-09 16:00:00 9.1 5 Nordeste 19 Este 0 -- -- 92
2021-02-09 15:00:00 9 13 Este 18 Este 0 -- -- 93
2021-02-09 14:00:00 8.7 7 Nordeste -- -- -- -- -- 92
2021-02-09 13:00:00 8.1 9 Nordeste 13 Nordeste 0 -- -- 92
2021-02-09 12:00:00 7.6 8 Nordeste 10 Nordeste 0 -- -- 92
2021-02-09 11:00:00 7.2 8 Nordeste 15 Nordeste 0 -- -- 89
2021-02-09 10:00:00 7.1 2 Este 8 Oeste 0 -- -- 88
2021-02-09 09:00:00 6.4 6 Oeste 9 Oeste 0 -- -- 91
2021-02-09 08:00:00 5.9 0 Calma 10 Oeste 0 -- -- 89
2021-02-09 07:00:00 5.3 6 Noroeste 9 Oeste 0 -- -- 90
2021-02-09 06:00:00 5 4 Oeste 7 Noroeste 0 -- -- 89
2021-02-09 05:00:00 5.8 8 Oeste 12 Oeste 0 -- -- 85
2021-02-09 04:00:00 7.3 9 Oeste 18 Oeste 0 -- -- 80
2021-02-09 03:00:00 9.7 12 Oeste 23 Sudoeste 0 -- -- 73
2021-02-09 02:00:00 9.2 13 Oeste 22 Oeste 0 -- -- 74
2021-02-09 01:00:00 9.4 15 Oeste 31 Sudoeste 0 -- -- 72
2021-02-09 00:00:00 9.6 18 Sudoeste 32 Sudoeste 0 -- -- 72
2021-02-08 23:00:00 10 16 Oeste 30 Sudoeste 0 -- -- 72
2021-02-08 22:00:00 10.4 21 Sudoeste 30 Sudoeste 0 -- -- 73
2021-02-08 21:00:00 8.2 13 Oeste 19 Sudoeste 0 -- -- 85
2021-02-08 20:00:00 8.8 8 Oeste 37 Oeste 0.2 -- -- 84
2021-02-08 19:00:00 9.1 3 Oeste 17 Norte 0 -- -- 88
2021-02-08 18:00:00 10.1 4 Oeste 8 Sudoeste 0 -- -- 88
2021-02-08 17:00:00 11.9 4 Sudoeste 9 Oeste 0 -- -- 83
2021-02-08 16:00:00 10.6 3 Este 9 Nordeste 0 -- -- 89
2021-02-08 15:00:00 9.7 5 Nordeste 13 Nordeste 0.8 -- -- 89
2021-02-08 14:00:00 9 9 Nordeste 13 Nordeste 0 -- -- 92
2021-02-08 13:00:00 7.2 8 Nordeste 10 Nordeste 0.4 -- -- 92
2021-02-08 12:00:00 6.5 3 Nordeste 11 Nordeste 0.2 -- -- 90
2021-02-08 11:00:00 6.2 2 Nordeste 8 Nordeste 0.2 -- -- 90
2021-02-08 10:00:00 6.2 0 Calma 8 Nordeste 0.2 -- -- 90
2021-02-08 09:00:00 5.7 3 Sudoeste 9 Oeste 0 -- -- 92
2021-02-08 08:00:00 4.9 3 Sudeste 5 Este 0 -- -- 90
2021-02-08 07:00:00 5.2 2 Oeste 5 Noroeste 0 -- -- 89
2021-02-08 06:00:00 4.9 2 Oeste 6 Oeste 0 -- -- 85
2021-02-08 05:00:00 4.4 2 Oeste 8 Oeste 0 -- -- 85
2021-02-08 04:00:00 4.4 4 Noroeste 10 Oeste 0 -- -- 83
2021-02-08 03:00:00 4.8 6 Oeste 15 Sudoeste 0 -- -- 82
2021-02-08 02:00:00 5.4 10 Oeste 16 Oeste 0 -- -- 80
2021-02-08 01:00:00 6.3 10 Oeste 15 Oeste 0 -- -- 76
2021-02-08 00:00:00 7.6 12 Oeste 15 Oeste 0 -- -- 68
2021-02-07 23:00:00 8.5 9 Sudoeste 13 Sudoeste 0 -- -- 65
2021-02-07 22:00:00 8.9 9 Sudoeste 13 Oeste 0 -- -- 61
2021-02-07 21:00:00 10 9 Oeste 19 Oeste 0 -- -- 55
2021-02-07 20:00:00 10.5 11 Sudoeste 23 Sudoeste 0 -- -- 51
2021-02-07 19:00:00 10.2 8 Oeste 26 Oeste 0 -- -- 54
2021-02-07 18:00:00 10.7 11 Oeste 35 Noroeste 0 -- -- 56
2021-02-07 17:00:00 11.2 23 Oeste 44 Oeste 0 -- -- 55
2021-02-07 16:00:00 12.2 28 Oeste 46 Oeste 0 -- -- 53
2021-02-07 15:00:00 12.8 27 Oeste 49 Oeste 0 -- -- 51
2021-02-07 14:00:00 12 36 Oeste 50 Oeste 0 -- -- 54
2021-02-07 13:00:00 11.6 27 Oeste 45 Oeste 0 -- -- 54
2021-02-07 12:00:00 10.6 29 Oeste 45 Oeste 0 -- -- 57
2021-02-07 11:00:00 9.2 30 Oeste 48 Oeste 0 -- -- 63
2021-02-07 10:00:00 7.7 27 Oeste 50 Oeste 0 -- -- 68
2021-02-07 09:00:00 6.5 23 Oeste 46 Oeste 0 -- -- 70
2021-02-07 08:00:00 6.1 25 Oeste 39 Oeste 0 -- -- 71
2021-02-07 07:00:00 6.4 23 Oeste 40 Oeste 0 -- -- 69
2021-02-07 06:00:00 7.4 24 Oeste 43 Oeste 0 -- -- 65
2021-02-07 05:00:00 7.9 26 Oeste 48 Oeste 0 -- -- 65
2021-02-07 04:00:00 8.1 29 Oeste 48 Oeste 0 -- -- 67
2021-02-07 03:00:00 8.5 26 Oeste 47 Oeste 0 -- -- 68
2021-02-07 02:00:00 8.7 27 Oeste 44 Noroeste 0 -- -- 68
2021-02-07 01:00:00 8.7 21 Oeste 37 Oeste 0 -- -- 71
2021-02-07 00:00:00 8.2 8 Oeste 19 Oeste 0 -- -- 77
2021-02-06 23:00:00 7.3 6 Oeste 14 Sudoeste 0 -- -- 89
2021-02-06 22:00:00 8.5 9 Sudoeste 15 Sudoeste 0 -- -- 86
2021-02-06 21:00:00 9.8 9 Sudoeste 19 Oeste 0 -- -- 82
2021-02-06 20:00:00 10.6 9 Oeste 31 Oeste 0 -- -- 81
2021-02-06 19:00:00 11.3 17 Oeste 43 Noroeste 0 -- -- 80
2021-02-06 18:00:00 12.6 24 Noroeste 51 Oeste 0 -- -- 72
2021-02-06 17:00:00 16.5 4 Sudoeste 14 Sudoeste 0 -- -- 53
2021-02-06 16:00:00 17.5 11 Oeste 29 Sudoeste 0 -- -- 47
2021-02-06 15:00:00 17.8 18 Sudoeste 31 Sudoeste 0 -- -- 44
2021-02-06 14:00:00 17.2 5 Sudeste 21 Sudoeste 0 -- -- 58
2021-02-06 13:00:00 17 7 Sur 12 Sudeste 0 -- -- 61
2021-02-06 12:00:00 15.3 5 Sudoeste 12 Sur 0 -- -- 66
2021-02-06 11:00:00 13.3 0 Calma 13 Sudoeste 0 -- -- 74
2021-02-06 10:00:00 10.4 6 Sudoeste 14 Sudoeste 0 -- -- 86
2021-02-06 09:00:00 8.7 6 Oeste 9 Sur 0 -- -- 91
2021-02-06 08:00:00 8.9 3 Este 12 Sudoeste 0 -- -- 88
2021-02-06 07:00:00 9.6 5 Sudoeste 19 Sudoeste 0 -- -- 86
2021-02-06 06:00:00 10.6 15 Sudoeste 23 Sudoeste 0 -- -- 82
2021-02-06 05:00:00 9.5 3 Noroeste 7 Noroeste 0 -- -- 88
2021-02-06 04:00:00 10.1 2 Sudoeste 12 Oeste 0 -- -- 86
2021-02-06 03:00:00 10.1 11 Nordeste 21 Este 0 -- -- 86
2021-02-06 02:00:00 9 4 Oeste 6 Noroeste 0 -- -- 90
2021-02-06 01:00:00 9.2 4 Sudoeste 11 Sudoeste 0 -- -- 90
2021-02-06 00:00:00 8.4 2 Sur 10 Oeste 0 -- -- 90
2021-02-05 23:00:00 9 8 Oeste 10 Oeste 0 -- -- 88
2021-02-05 22:00:00 10.6 5 Norte 10 Sudoeste 0 -- -- 85
2021-02-05 21:00:00 10.4 3 Noroeste 7 Noroeste 0 -- -- 85
2021-02-05 20:00:00 12.2 3 Este 15 Este 0 -- -- 77
2021-02-05 19:00:00 13.8 10 Este 17 Este 0 -- -- 71
2021-02-05 18:00:00 14.6 10 Sudeste 31 Este 0 -- -- 69
2021-02-05 17:00:00 15.4 18 Este 38 Este 0 -- -- 65
2021-02-05 16:00:00 15.6 19 Este 42 Este 0 -- -- 64
2021-02-05 15:00:00 15.1 18 Este 39 Este 0 -- -- 66
2021-02-05 14:00:00 15.9 18 Sudeste 37 Este 0 -- -- 64
2021-02-05 13:00:00 14.5 22 Este 38 Este 0 -- -- 70
2021-02-05 12:00:00 13.7 22 Este 35 Sudeste 0 -- -- 76
2021-02-05 11:00:00 11.4 12 Este 23 Este 0 -- -- 88
2021-02-05 10:00:00 9.1 6 Nordeste 14 Nordeste 0 -- -- 97
2021-02-05 09:00:00 7.8 5 Oeste 9 Noroeste 0 -- -- 97
2021-02-05 08:00:00 7 3 Sudoeste 10 Nordeste 0 -- -- 95
2021-02-05 07:00:00 7.5 5 Oeste 12 Oeste 0 -- -- 95
2021-02-05 06:00:00 7.3 5 Oeste 10 Noroeste 0 -- -- 95
2021-02-05 05:00:00 7.2 4 Noroeste 6 Noroeste 0 -- -- 95
2021-02-05 04:00:00 7.5 4 Oeste 8 Oeste 0 -- -- 94
2021-02-05 03:00:00 7.7 3 Noroeste 6 Noroeste 0 -- -- 92
2021-02-05 02:00:00 8.7 5 Oeste 8 Oeste 0 -- -- 90
2021-02-05 01:00:00 9.7 2 Noroeste 8 Nordeste 0 -- -- 87
2021-02-05 00:00:00 11.1 3 Nordeste 19 Este 0 -- -- 83
2021-02-04 23:00:00 12.1 14 Este 28 Este 0 -- -- 80
2021-02-04 22:00:00 12.2 15 Este 23 Este 0 -- -- 80
2021-02-04 21:00:00 12.7 12 Este 38 Este 0 -- -- 78
2021-02-04 20:00:00 14.2 19 Este 42 Sudeste 0 -- -- 71
2021-02-04 19:00:00 15.5 25 Este 39 Este 0 -- -- 65
2021-02-04 18:00:00 15.7 14 Este 32 Este 0 -- -- 66
2021-02-04 17:00:00 16.8 12 Este 31 Este 0 -- -- 66
2021-02-04 16:00:00 17 10 Este 25 Este 0 -- -- 61
2021-02-04 15:00:00 17.6 10 Este 21 Este 0 -- -- 62
2021-02-04 14:00:00 16.1 6 Este 13 Nordeste 0 -- -- 68
2021-02-04 13:00:00 14.8 4 Este 19 Nordeste 0 -- -- 71
2021-02-04 12:00:00 13.1 16 Este 22 Nordeste 0 -- -- 77
2021-02-04 11:00:00 10.6 7 Nordeste 10 Nordeste 0 -- -- 86
2021-02-04 10:00:00 8.4 3 Sudeste 5 Nordeste 0 -- -- 94
2021-02-04 09:00:00 6.8 0 Calma 8 Este 0 -- -- 96
2021-02-04 08:00:00 6.7 4 Noroeste 7 Noroeste 0 -- -- 95
2021-02-04 07:00:00 7.1 0 Calma 9 Noroeste 0 -- -- 95
2021-02-04 06:00:00 7.3 4 Sudeste 8 Este 0 -- -- 93
2021-02-04 05:00:00 7.6 3 Oeste 6 Noroeste 0 -- -- 94
2021-02-04 04:00:00 7.9 2 Sudoeste 5 Oeste 0 -- -- 92
2021-02-04 03:00:00 8.8 0 Calma 5 Noroeste 0 -- -- 90
2021-02-04 02:00:00 9.1 2 Oeste 5 Nordeste 0 -- -- 88
2021-02-04 01:00:00 9.8 2 Oeste 3 Oeste 0 -- -- 87
2021-02-04 00:00:00 10.3 0 Calma 8 Noroeste 0 -- -- 84
2021-02-03 23:00:00 11 4 Oeste 13 Oeste 0 -- -- 81
2021-02-03 22:00:00 12.2 3 Norte 17 Oeste 0 -- -- 77
2021-02-03 21:00:00 12.5 9 Oeste 14 Oeste 0 -- -- 77
2021-02-03 20:00:00 13.5 12 Oeste 15 Oeste 0 -- -- 74
2021-02-03 19:00:00 13.4 4 Oeste 10 Oeste 0 -- -- 74
2021-02-03 18:00:00 15.3 5 Oeste 7 Oeste 0 -- -- 69
2021-02-03 17:00:00 18.2 0 Calma 10 Noroeste 0 -- -- 58
2021-02-03 16:00:00 19.3 5 Noroeste 18 Oeste 0 -- -- 50
2021-02-03 15:00:00 19.1 10 Oeste 22 Noroeste 0 -- -- 52
2021-02-03 14:00:00 17.7 10 Noroeste 19 Noroeste 0 -- -- 55
2021-02-03 13:00:00 16.3 8 Nordeste 14 Nordeste 0 -- -- 60
2021-02-03 12:00:00 13.9 5 Este 12 Este 0 -- -- 68
2021-02-03 11:00:00 11.3 5 Nordeste 12 Nordeste 0 -- -- 77
2021-02-03 10:00:00 8.5 4 Sur 9 Sur 0 -- -- 89
2021-02-03 09:00:00 4.7 3 Oeste 7 Oeste 0 -- -- 95
2021-02-03 08:00:00 4.5 4 Oeste 12 Oeste 0 -- -- 94
2021-02-03 07:00:00 5.2 8 Oeste 13 Noroeste 0 -- -- 94
2021-02-03 06:00:00 5.5 8 Oeste 13 Noroeste 0 -- -- 94
2021-02-03 05:00:00 5.9 8 Oeste 14 Oeste 0 -- -- 93
2021-02-03 04:00:00 6.5 6 Oeste 12 Oeste 0 -- -- 90
2021-02-03 03:00:00 6.2 6 Oeste 11 Sudoeste 0 -- -- 90
2021-02-03 02:00:00 6.8 4 Oeste 10 Noroeste 0 -- -- 90
2021-02-03 01:00:00 7.6 5 Oeste 9 Oeste 0 -- -- 87
2021-02-03 00:00:00 9.2 6 Oeste 10 Oeste 0 -- -- 83
2021-02-02 23:00:00 9.8 4 Oeste 8 Oeste 0 -- -- 80
2021-02-02 22:00:00 10.7 0 Calma 9 Oeste 0 -- -- 77
2021-02-02 21:00:00 12.3 7 Oeste 17 Oeste 0 -- -- 72
2021-02-02 20:00:00 12.7 9 Oeste 13 Oeste 0 -- -- 73
2021-02-02 19:00:00 15 10 Oeste 17 Oeste 0 -- -- 64
2021-02-02 18:00:00 17.6 9 Sudoeste 19 Sudoeste 0 -- -- 57
2021-02-02 17:00:00 19.5 14 Oeste 25 Sudoeste 0 -- -- 49
2021-02-02 16:00:00 19.9 17 Oeste 26 Oeste 0 -- -- 49
2021-02-02 15:00:00 19.6 15 Oeste 30 Oeste 0 -- -- 51
2021-02-02 14:00:00 19.4 15 Oeste 32 Sudoeste 0 -- -- 52
2021-02-02 13:00:00 18.7 17 Oeste 33 Oeste 0 -- -- 54
2021-02-02 12:00:00 17.6 17 Sudoeste 30 Oeste 0 -- -- 58
2021-02-02 11:00:00 15.1 15 Oeste 26 Oeste 0 -- -- 67
2021-02-02 10:00:00 12 15 Sudoeste 23 Sudoeste 0 -- -- 77
2021-02-02 09:00:00 10.2 15 Sudoeste 29 Sudoeste 0 -- -- 80
2021-02-02 08:00:00 11.2 21 Sudoeste 30 Oeste 0 -- -- 75
2021-02-02 07:00:00 11.7 22 Sudoeste 32 Sudoeste 0 -- -- 75
2021-02-02 06:00:00 12 24 Sudoeste 32 Oeste 0 -- -- 74
2021-02-02 05:00:00 14.4 24 Sudoeste 34 Sudoeste 0 -- -- 66
2021-02-02 04:00:00 12.2 22 Sudoeste 30 Sudoeste 0 -- -- 73
2021-02-02 03:00:00 13.6 22 Sudoeste 28 Oeste 0 -- -- 67
2021-02-02 02:00:00 13.4 18 Oeste 27 Sudoeste 0 -- -- 71
2021-02-02 01:00:00 13.4 22 Sudoeste 32 Sudoeste 0 -- -- 70
2021-02-02 00:00:00 13.4 16 Oeste 28 Oeste 0 -- -- 68
2021-02-01 23:00:00 13.9 15 Sudoeste 28 Oeste 0 -- -- 65
2021-02-01 22:00:00 14.4 21 Sudoeste 37 Oeste 0 -- -- 64
2021-02-01 21:00:00 15 24 Oeste 38 Sudoeste 0 -- -- 62
2021-02-01 20:00:00 15 19 Oeste 36 Oeste 0 -- -- 63
2021-02-01 19:00:00 15.2 22 Oeste 49 Oeste 0 -- -- 62
2021-02-01 18:00:00 15.8 26 Oeste 48 Oeste 0 -- -- 58
2021-02-01 17:00:00 16.5 24 Oeste 53 Oeste 0 -- -- 53
2021-02-01 16:00:00 17.8 35 Oeste 66 Oeste 0 -- -- 48
2021-02-01 15:00:00 18.4 38 Oeste 67 Oeste 0 -- -- 44
2021-02-01 14:00:00 17.8 46 Oeste 81 Oeste 0 -- -- 44
2021-02-01 13:00:00 17.1 45 Oeste 65 Oeste 0 -- -- 47
2021-02-01 12:00:00 16.4 43 Oeste 66 Oeste 0 -- -- 47
2021-02-01 11:00:00 15.1 36 Oeste 57 Oeste 0 -- -- 54
2021-02-01 10:00:00 13.7 32 Oeste 55 Oeste 0 -- -- 57
2021-02-01 09:00:00 12.2 27 Oeste 49 Oeste 0 -- -- 63
2021-02-01 08:00:00 12 21 Oeste 46 Oeste 0 -- -- 63
2021-02-01 07:00:00 12.1 25 Oeste 37 Oeste 0 -- -- 63
2021-02-01 06:00:00 11.9 19 Oeste 33 Oeste 0 -- -- 66
2021-02-01 05:00:00 12.3 19 Oeste 32 Oeste 0 -- -- 65
2021-02-01 04:00:00 12.7 17 Oeste 33 Oeste 0 -- -- 64
2021-02-01 03:00:00 13.5 23 Oeste 36 Oeste 0 -- -- 62
2021-02-01 02:00:00 13.5 15 Oeste 35 Oeste 0 -- -- 65
2021-02-01 01:00:00 13.6 13 Oeste 43 Oeste 0 -- -- 66
2021-02-01 00:00:00 9.8 16 Sudoeste 25 Sudoeste 0 -- -- 81
2021-01-31 23:00:00 9.7 13 Sudoeste 18 Sudoeste 0 -- -- 81
2021-01-31 22:00:00 10.9 10 Sudoeste 16 Oeste 0 -- -- 78
2021-01-31 21:00:00 12.5 9 Oeste 26 Sudoeste 0 -- -- 73
2021-01-31 20:00:00 13.6 19 Oeste 29 Sudoeste 0 -- -- 67
2021-01-31 19:00:00 14.3 21 Oeste 33 Oeste 0 -- -- 64
2021-01-31 18:00:00 14.7 22 Sudoeste 32 Oeste 0 -- -- 61
2021-01-31 17:00:00 15.2 18 Oeste 38 Sudoeste 0 -- -- 59
2021-01-31 16:00:00 15.3 26 Oeste 49 Oeste 0 -- -- 55
2021-01-31 15:00:00 16.3 28 Oeste 55 Oeste 0 -- -- 54
2021-01-31 14:00:00 14.7 32 Oeste 63 Sudoeste 0 -- -- 53
2021-01-31 13:00:00 14.4 36 Oeste 62 Oeste 0 -- -- 53
2021-01-31 12:00:00 14.9 40 Oeste 70 Oeste 0 -- -- 50
2021-01-31 11:00:00 13.2 35 Oeste 54 Oeste 0 -- -- 57
2021-01-31 10:00:00 12 23 Oeste 48 Noroeste 0 -- -- 60
2021-01-31 09:00:00 11.1 24 Oeste 44 Noroeste 0 -- -- 63
2021-01-31 08:00:00 9.9 18 Oeste 40 Oeste 0 -- -- 66
2021-01-31 07:00:00 9.5 16 Oeste 39 Oeste 0 -- -- 67
2021-01-31 06:00:00 9.8 17 Oeste 34 Sudoeste 0 -- -- 64
2021-01-31 05:00:00 9 19 Sudoeste 26 Sudoeste 0 -- -- 69
2021-01-31 04:00:00 8.2 14 Sudoeste 21 Oeste 0 -- -- 74
2021-01-31 03:00:00 8.1 15 Sudoeste 24 Sudoeste 0 -- -- 76
2021-01-31 02:00:00 10.3 12 Oeste 29 Oeste 0 -- -- 65
2021-01-31 01:00:00 10.4 14 Oeste 30 Oeste 0 -- -- 65
2021-01-31 00:00:00 9.9 17 Oeste 30 Sudoeste 0 -- -- 67
2021-01-30 23:00:00 9.7 14 Oeste 23 Sudoeste 0 -- -- 67
2021-01-30 22:00:00 9 6 Oeste 17 Sudoeste 0 -- -- 69
2021-01-30 21:00:00 9.1 10 Oeste 26 Sudoeste 0 -- -- 67
2021-01-30 20:00:00 9.1 18 Sudoeste 30 Oeste 0 -- -- 69
2021-01-30 19:00:00 10.4 19 Oeste 54 Noroeste 0 -- -- 65
2021-01-30 18:00:00 12.8 11 Oeste 28 Oeste 0 -- -- 62
2021-01-30 17:00:00 13.6 15 Oeste 63 Oeste 0.2 -- -- 61
2021-01-30 16:00:00 15.4 22 Oeste 47 Noroeste 0 -- -- 57
2021-01-30 15:00:00 17.5 31 Oeste 55 Oeste 0 -- -- 43
2021-01-30 14:00:00 17.7 26 Oeste 45 Oeste 0 -- -- 47
2021-01-30 13:00:00 16.5 33 Oeste 47 Oeste 0 -- -- 52
2021-01-30 12:00:00 15.4 9 Oeste 28 Oeste 0 -- -- 69
2021-01-30 11:00:00 13.4 9 Oeste 16 Oeste 0 -- -- 81
2021-01-30 10:00:00 11 8 Oeste 18 Oeste 0.2 -- -- 90
2021-01-30 09:00:00 12.3 11 Noroeste 34 Oeste 0 -- -- 80
2021-01-30 08:00:00 12.4 20 Oeste 34 Oeste 0 -- -- 84
2021-01-30 07:00:00 8.2 6 Sudoeste 10 Sudoeste 0 -- -- 93
2021-01-30 06:00:00 8.2 3 Oeste 12 Sudoeste 0 -- -- 94
2021-01-30 05:00:00 7 4 Oeste 8 Oeste 0 -- -- 94
2021-01-30 04:00:00 7.6 3 Nordeste 9 Oeste 0 -- -- 91
2021-01-30 03:00:00 8.8 5 Oeste 12 Oeste 0 -- -- 89
2021-01-30 02:00:00 9.9 8 Oeste 13 Oeste 0 -- -- 87
2021-01-30 01:00:00 10.5 8 Oeste 12 Sudoeste 0 -- -- 87
2021-01-30 00:00:00 12.7 11 Sudoeste 17 Sudoeste 0 -- -- 79